createdAt,value
2022-08-04T00:00:45.817Z,20.81
2022-08-04T00:03:17.558Z,20.79
2022-08-04T00:06:03.965Z,20.73
2022-08-04T00:08:42.778Z,20.69
2022-08-04T00:11:16.397Z,20.68
2022-08-04T00:13:58.174Z,20.67
2022-08-04T00:16:35.001Z,20.61
2022-08-04T00:19:11.383Z,20.50
2022-08-04T00:21:43.438Z,20.46
2022-08-04T00:24:13.928Z,20.37
2022-08-04T00:26:44.591Z,20.35
2022-08-04T00:29:12.637Z,20.36
2022-08-04T00:31:54.923Z,20.34
2022-08-04T00:34:26.994Z,20.33
2022-08-04T00:36:56.342Z,20.29
2022-08-04T00:39:25.371Z,20.28
2022-08-04T00:42:15.290Z,20.17
2022-08-04T00:44:58.282Z,20.22
2022-08-04T00:47:40.924Z,20.21
2022-08-04T00:50:13.237Z,20.20
2022-08-04T00:52:55.365Z,20.23
2022-08-04T00:55:37.857Z,20.21
2022-08-04T00:58:24.245Z,20.17
2022-08-04T01:01:01.508Z,20.13
2022-08-04T01:03:50.445Z,20.15
2022-08-04T01:06:29.761Z,20.05
2022-08-04T01:09:21.225Z,20.07
2022-08-04T01:12:09.124Z,20.04
2022-08-04T01:14:50.166Z,19.98
2022-08-04T01:17:25.494Z,19.88
2022-08-04T01:20:07.490Z,19.88
2022-08-04T01:23:00.597Z,19.82
2022-08-04T01:25:56.327Z,19.80
2022-08-04T01:28:31.413Z,19.70
2022-08-04T01:31:08.164Z,19.68
2022-08-04T01:33:58.456Z,19.61
2022-08-04T01:36:35.210Z,19.63
2022-08-04T01:39:25.822Z,19.56
2022-08-04T01:41:58.375Z,19.50
2022-08-04T01:44:29.367Z,19.48
2022-08-04T01:46:59.103Z,19.42
2022-08-04T01:49:32.159Z,19.40
2022-08-04T01:52:11.202Z,19.41
2022-08-04T01:54:42.860Z,19.46
2022-08-04T01:57:38.506Z,19.46
2022-08-04T02:00:01.416Z,19.47
2022-08-04T02:02:31.200Z,19.45
2022-08-04T02:04:59.350Z,19.37
2022-08-04T02:07:40.291Z,19.22
2022-08-04T02:10:14.117Z,19.19
2022-08-04T02:12:54.709Z,19.17
2022-08-04T02:15:29.006Z,19.17
2022-08-04T02:18:03.884Z,19.21
2022-08-04T02:20:36.133Z,19.23
2022-08-04T02:23:07.244Z,19.11
2022-08-04T02:25:40.450Z,19.02
2022-08-04T02:28:23.901Z,18.97
2022-08-04T02:31:03.992Z,18.97
2022-08-04T02:33:38.440Z,18.93
2022-08-04T02:36:10.359Z,18.95
2022-08-04T02:38:53.018Z,18.97
2022-08-04T02:41:23.413Z,18.97
2022-08-04T02:43:53.311Z,19.04
2022-08-04T02:46:22.742Z,19.02
2022-08-04T02:48:54.390Z,18.98
2022-08-04T02:51:25.168Z,18.96
2022-08-04T02:53:56.351Z,18.84
2022-08-04T02:56:25.777Z,18.78
2022-08-04T02:58:59.277Z,18.75
2022-08-04T03:01:27.403Z,18.74
2022-08-04T03:04:10.925Z,18.75
2022-08-04T03:07:20.202Z,18.70
2022-08-04T03:10:21.330Z,18.64
2022-08-04T03:13:23.109Z,18.50
2022-08-04T03:16:02.397Z,18.47
2022-08-04T03:19:09.105Z,18.43
2022-08-04T03:22:15.007Z,18.22
2022-08-04T03:25:25.040Z,18.28
2022-08-04T03:28:26.110Z,18.30
2022-08-04T03:31:22.857Z,18.39
2022-08-04T03:34:04.644Z,18.42
2022-08-04T03:37:08.548Z,18.34
2022-08-04T03:40:10.591Z,18.28
2022-08-04T03:43:57.692Z,18.26
2022-08-04T03:46:43.048Z,18.26
2022-08-04T03:50:04.960Z,18.32
2022-08-04T03:53:10.884Z,18.34
2022-08-04T03:56:18.300Z,18.35
2022-08-04T03:59:18.905Z,18.40
2022-08-04T04:02:29.209Z,18.46
2022-08-04T04:05:22.810Z,18.53
2022-08-04T04:08:33.291Z,18.56
2022-08-04T04:11:56.421Z,18.61
2022-08-04T04:14:52.846Z,18.64
2022-08-04T04:17:35.182Z,18.68
2022-08-04T04:20:32.722Z,18.74
2022-08-04T04:23:17.196Z,18.80
2022-08-04T04:25:58.086Z,18.85
2022-08-04T04:28:43.535Z,18.92
2022-08-04T04:31:43.245Z,18.96
2022-08-04T04:34:27.505Z,19.01
2022-08-04T04:37:10.118Z,19.07
2022-08-04T04:39:51.348Z,19.10
2022-08-04T04:42:53.417Z,19.17
2022-08-04T04:45:31.950Z,19.23
2022-08-04T04:48:11.153Z,19.33
2022-08-04T04:50:54.260Z,19.37
2022-08-04T04:53:28.942Z,19.43
2022-08-04T04:56:04.582Z,19.46
2022-08-04T04:58:35.229Z,19.54
2022-08-04T05:01:45.289Z,19.60
2022-08-04T05:04:39.350Z,19.67
2022-08-04T05:07:53.019Z,19.74
2022-08-04T05:10:35.123Z,19.82
2022-08-04T05:14:38.327Z,19.85
2022-08-04T05:16:27.096Z,19.88
2022-08-04T05:19:03.444Z,20.00
2022-08-04T05:21:43.359Z,20.06
2022-08-04T05:24:15.166Z,20.13
2022-08-04T05:26:49.690Z,20.21
2022-08-04T05:29:31.782Z,20.26
2022-08-04T05:32:04.119Z,20.39
2022-08-04T05:34:40.326Z,20.49
2022-08-04T05:37:12.338Z,20.47
2022-08-04T05:39:47.164Z,20.68
2022-08-04T05:42:16.137Z,20.80
2022-08-04T05:44:50.452Z,20.94
2022-08-04T05:47:29.101Z,21.03
2022-08-04T05:50:02.183Z,21.14
2022-08-04T05:52:32.633Z,21.26
2022-08-04T05:55:02.674Z,21.38
2022-08-04T05:57:32.697Z,21.49
2022-08-04T06:00:19.857Z,21.58
2022-08-04T06:02:54.945Z,21.73
2022-08-04T06:05:24.101Z,21.81
2022-08-04T06:08:12.692Z,21.81
2022-08-04T06:10:44.170Z,21.89
2022-08-04T06:13:49.377Z,21.91
2022-08-04T06:16:03.970Z,21.91
2022-08-04T06:19:59.027Z,22.00
2022-08-04T06:21:26.698Z,21.99
2022-08-04T06:24:01.031Z,22.01
2022-08-04T06:26:34.275Z,22.08
2022-08-04T06:29:03.189Z,22.11
2022-08-04T06:32:27.251Z,22.24
2022-08-04T06:34:35.556Z,22.32
2022-08-04T06:37:05.264Z,22.42
2022-08-04T06:39:36.195Z,22.48
2022-08-04T06:42:22.486Z,22.57
2022-08-04T06:44:53.311Z,22.68
2022-08-04T06:47:23.088Z,22.72
2022-08-04T06:51:27.048Z,22.83
2022-08-04T06:52:42.257Z,22.96
2022-08-04T06:55:13.370Z,23.01
2022-08-04T06:57:43.387Z,23.06
2022-08-04T07:00:14.299Z,23.10
2022-08-04T07:02:45.733Z,23.16
2022-08-04T07:05:14.751Z,23.32
2022-08-04T07:07:56.765Z,23.35
2022-08-04T07:10:28.754Z,23.35
2022-08-04T07:12:58.228Z,23.49
2022-08-04T07:15:27.641Z,23.52
2022-08-04T07:18:00.079Z,23.58
2022-08-04T07:20:34.537Z,23.69
2022-08-04T07:23:05.241Z,23.75
2022-08-04T07:25:57.152Z,23.89
2022-08-04T07:28:26.810Z,24.13
2022-08-04T07:30:55.889Z,24.24
2022-08-04T07:33:24.511Z,24.30
2022-08-04T07:36:05.694Z,24.27
2022-08-04T07:38:46.618Z,24.26
2022-08-04T07:41:38.538Z,24.29
2022-08-04T07:44:08.043Z,24.32
2022-08-04T07:46:36.788Z,24.39
2022-08-04T07:49:05.530Z,24.50
2022-08-04T07:51:35.341Z,24.81
2022-08-04T07:54:05.318Z,24.91
2022-08-04T07:56:37.340Z,25.04
2022-08-04T07:59:06.269Z,25.21
2022-08-04T08:01:36.137Z,25.30
2022-08-04T08:04:07.426Z,25.51
2022-08-04T08:06:42.713Z,25.74
2022-08-04T08:09:14.593Z,26.11
2022-08-04T08:12:38.658Z,26.51
2022-08-04T08:14:36.250Z,26.91
2022-08-04T08:17:04.729Z,27.18
2022-08-04T08:19:34.748Z,27.32
2022-08-04T08:22:03.702Z,27.35
2022-08-04T08:24:35.896Z,27.48
2022-08-04T08:27:06.820Z,27.61
2022-08-04T08:29:35.874Z,27.62
2022-08-04T08:32:08.519Z,27.78
2022-08-04T08:34:39.483Z,27.84
2022-08-04T08:37:16.589Z,27.85
2022-08-04T08:39:55.054Z,28.06
2022-08-04T08:42:39.617Z,28.09
2022-08-04T08:45:31.810Z,27.98
2022-08-04T08:48:18.776Z,27.99
2022-08-04T08:51:04.464Z,28.07
2022-08-04T08:53:46.241Z,28.15
2022-08-04T08:56:31.514Z,28.19
2022-08-04T08:59:17.239Z,28.14
2022-08-04T09:02:10.850Z,28.25
2022-08-04T09:05:08.805Z,28.31
2022-08-04T09:07:48.693Z,28.47
2022-08-04T09:10:21.632Z,28.46
2022-08-04T09:12:55.201Z,28.52
2022-08-04T09:15:34.158Z,28.86
2022-08-04T09:18:06.712Z,28.91
2022-08-04T09:20:40.389Z,28.92
2022-08-04T09:23:24.946Z,28.96
2022-08-04T09:26:02.287Z,29.14
2022-08-04T09:28:53.639Z,29.11
2022-08-04T09:31:30.144Z,29.09
2022-08-04T09:34:25.257Z,29.12
2022-08-04T09:37:04.469Z,29.08
2022-08-04T09:39:41.430Z,29.17
2022-08-04T09:42:23.925Z,29.47
2022-08-04T09:45:06.235Z,29.65
2022-08-04T09:47:45.997Z,29.80
2022-08-04T09:50:27.432Z,29.90
2022-08-04T09:53:02.642Z,29.88
2022-08-04T09:55:53.906Z,30.05
2022-08-04T09:58:45.553Z,30.19
2022-08-04T10:01:23.142Z,30.33
2022-08-04T10:03:57.353Z,30.33
2022-08-04T10:06:43.892Z,30.46
2022-08-04T10:09:28.933Z,30.56
2022-08-04T10:12:09.258Z,30.56
2022-08-04T10:14:49.094Z,30.89
2022-08-04T10:17:33.780Z,30.75
2022-08-04T10:20:12.889Z,30.83
2022-08-04T10:23:10.490Z,31.01
2022-08-04T10:26:06.195Z,31.09
2022-08-04T10:28:42.670Z,31.20
2022-08-04T10:31:14.412Z,31.10
2022-08-04T10:33:46.117Z,31.29
2022-08-04T10:36:20.273Z,31.23
2022-08-04T10:39:07.123Z,31.38
2022-08-04T10:41:48.579Z,31.41
2022-08-04T10:44:28.784Z,31.45
2022-08-04T10:47:06.077Z,31.54
2022-08-04T10:49:38.371Z,31.26
2022-08-04T10:52:12.359Z,31.25
2022-08-04T10:54:48.045Z,31.29
2022-08-04T10:57:22.344Z,31.50
2022-08-04T11:00:00.665Z,31.75
2022-08-04T11:02:38.994Z,31.77
2022-08-04T11:05:15.704Z,31.80
2022-08-04T11:07:48.508Z,31.96
2022-08-04T11:10:20.417Z,32.03
2022-08-04T11:12:50.514Z,32.18
2022-08-04T11:15:24.682Z,32.33
2022-08-04T11:17:57.666Z,32.52
2022-08-04T11:20:34.994Z,32.57
2022-08-04T11:23:09.934Z,32.77
2022-08-04T11:25:52.126Z,32.89
2022-08-04T11:28:34.359Z,33.34
2022-08-04T11:31:06.299Z,33.36
2022-08-04T11:33:42.433Z,33.37
2022-08-04T11:36:21.533Z,33.29
2022-08-04T11:38:57.967Z,33.26
2022-08-04T11:41:38.850Z,33.45
2022-08-04T11:44:12.787Z,33.20
2022-08-04T11:46:45.113Z,33.27
2022-08-04T11:49:22.966Z,33.40
2022-08-04T11:51:52.490Z,33.59
2022-08-04T11:54:22.960Z,33.48
2022-08-04T11:56:51.739Z,33.69
2022-08-04T11:59:22.363Z,33.75
2022-08-04T12:02:03.640Z,33.82
2022-08-04T12:04:43.127Z,33.94
2022-08-04T12:07:30.642Z,33.67
2022-08-04T12:10:40.829Z,33.79
2022-08-04T12:13:20.917Z,33.68
2022-08-04T12:15:58.788Z,33.89
2022-08-04T12:18:35.578Z,33.62
2022-08-04T12:21:09.059Z,33.40
2022-08-04T12:23:41.617Z,33.46
2022-08-04T12:26:18.479Z,33.44
2022-08-04T12:31:45.317Z,34.13
2022-08-04T12:34:18.254Z,34.44
2022-08-04T12:36:55.541Z,34.83
2022-08-04T12:39:26.281Z,34.99
2022-08-04T12:42:02.804Z,34.57
2022-08-04T12:44:37.680Z,34.60
2022-08-04T12:47:36.354Z,34.58
2022-08-04T12:50:02.156Z,34.81
2022-08-04T12:55:29.671Z,37.75
2022-08-04T12:58:00.177Z,39.29
2022-08-04T13:00:35.398Z,39.89
2022-08-04T13:03:13.266Z,39.91
2022-08-04T13:05:42.466Z,40.64
2022-08-04T13:08:12.080Z,41.59
2022-08-04T13:10:43.294Z,41.95
2022-08-04T13:13:18.386Z,41.42
2022-08-04T13:15:57.691Z,42.30
2022-08-04T13:18:30.376Z,41.86
2022-08-04T13:21:20.345Z,42.19
2022-08-04T13:24:10.163Z,42.83
2022-08-04T13:26:55.213Z,41.17
2022-08-04T13:30:00.154Z,41.17
2022-08-04T13:32:22.235Z,42.81
2022-08-04T13:34:53.378Z,43.24
2022-08-04T13:37:26.640Z,42.84
2022-08-04T13:39:56.815Z,42.26
2022-08-04T13:42:27.002Z,42.92
2022-08-04T13:44:59.419Z,43.44
2022-08-04T13:47:31.547Z,43.03
2022-08-04T13:50:20.810Z,41.75
2022-08-04T13:52:52.641Z,42.24
2022-08-04T13:55:25.803Z,40.79
2022-08-04T13:57:58.387Z,40.45
2022-08-04T14:00:41.586Z,41.12
2022-08-04T14:03:23.809Z,40.33
2022-08-04T14:06:15.745Z,40.70
2022-08-04T14:08:48.269Z,41.18
2022-08-04T14:12:06.869Z,42.34
2022-08-04T14:14:15.913Z,42.77
2022-08-04T14:17:01.979Z,40.28
2022-08-04T14:19:48.473Z,38.70
2022-08-04T14:22:31.040Z,38.63
2022-08-04T14:25:00.326Z,39.77
2022-08-04T14:27:30.406Z,40.98
2022-08-04T14:29:58.834Z,39.59
2022-08-04T14:32:28.445Z,36.97
2022-08-04T14:34:57.459Z,36.92
2022-08-04T14:37:25.761Z,35.50
2022-08-04T14:40:08.117Z,34.32
2022-08-04T14:42:54.359Z,33.21
2022-08-04T14:45:32.243Z,32.91
2022-08-04T14:48:03.184Z,33.04
2022-08-04T14:50:37.431Z,33.22
2022-08-04T14:53:07.841Z,32.37
2022-08-04T14:55:36.614Z,31.66
2022-08-04T14:58:34.088Z,31.02
2022-08-04T15:00:56.763Z,30.70
2022-08-04T15:03:27.201Z,30.42
2022-08-04T15:06:05.328Z,30.03
2022-08-04T15:08:36.306Z,29.84
2022-08-04T15:11:05.785Z,29.80
2022-08-04T15:13:35.265Z,29.27
2022-08-04T15:16:08.166Z,29.30
2022-08-04T15:18:42.059Z,29.03
2022-08-04T15:21:11.959Z,28.87
2022-08-04T15:23:40.324Z,28.85
2022-08-04T15:26:13.847Z,28.81
2022-08-04T15:28:45.912Z,28.70
2022-08-04T15:32:07.375Z,28.28
2022-08-04T15:34:04.914Z,28.13
2022-08-04T15:36:39.789Z,28.01
2022-08-04T15:39:18.743Z,27.77
2022-08-04T15:41:56.317Z,27.75
2022-08-04T15:45:05.157Z,27.38
2022-08-04T15:47:33.635Z,27.23
2022-08-04T15:50:09.329Z,27.09
2022-08-04T15:53:10.787Z,26.84
2022-08-04T15:55:42.913Z,26.75
2022-08-04T15:58:13.181Z,26.25
2022-08-04T16:01:16.510Z,26.10
2022-08-04T16:03:58.180Z,25.76
2022-08-04T16:06:45.686Z,25.12
2022-08-04T16:09:46.139Z,24.33
2022-08-04T16:12:57.240Z,23.56
2022-08-04T16:15:38.623Z,22.97
2022-08-04T16:18:13.742Z,22.33
2022-08-04T16:20:56.602Z,21.90
2022-08-04T16:24:00.620Z,21.55
2022-08-04T16:26:54.312Z,21.41
2022-08-04T16:29:41.924Z,21.22
2022-08-04T16:32:18.740Z,21.16
2022-08-04T16:34:55.499Z,21.11
2022-08-04T16:37:30.170Z,21.31
2022-08-04T16:40:34.589Z,21.41
2022-08-04T16:43:07.103Z,21.57
2022-08-04T16:45:43.670Z,21.63
2022-08-04T16:48:13.043Z,21.56
2022-08-04T16:50:52.741Z,21.40
2022-08-04T16:53:53.358Z,21.58
2022-08-04T16:56:14.502Z,21.67
2022-08-04T16:58:52.971Z,21.65
2022-08-04T17:01:33.770Z,21.57
2022-08-04T17:04:06.250Z,21.67
2022-08-04T17:06:36.627Z,21.71
2022-08-04T17:09:12.818Z,21.81
2022-08-04T17:11:44.607Z,21.90
2022-08-04T17:14:13.149Z,21.91
2022-08-04T17:16:43.255Z,22.11
2022-08-04T17:19:24.406Z,21.99
2022-08-04T17:22:02.818Z,21.95
2022-08-04T17:24:32.695Z,22.08
2022-08-04T17:27:04.123Z,22.44
2022-08-04T17:29:42.198Z,22.35
2022-08-04T17:32:15.257Z,22.26
2022-08-04T17:34:47.222Z,22.33
2022-08-04T17:37:39.509Z,22.49
2022-08-04T17:40:13.359Z,22.48
2022-08-04T17:42:45.175Z,22.69
2022-08-04T17:48:09.503Z,22.90
2022-08-04T17:50:43.795Z,22.98
2022-08-04T17:53:13.369Z,23.01
2022-08-04T17:55:47.215Z,23.23
2022-08-04T17:58:21.397Z,23.35
2022-08-04T18:01:32.907Z,23.34
2022-08-04T18:03:53.315Z,23.35
2022-08-04T18:06:25.562Z,23.34
2022-08-04T18:08:59.454Z,23.28
2022-08-04T18:11:53.359Z,23.22
2022-08-04T18:14:28.891Z,23.24
2022-08-04T18:16:57.581Z,23.06
2022-08-04T18:19:25.673Z,23.01
2022-08-04T18:22:00.995Z,22.85
2022-08-04T18:24:36.132Z,22.81
2022-08-04T18:27:20.801Z,22.81
2022-08-04T18:30:33.347Z,22.81
2022-08-04T18:32:57.278Z,22.74
2022-08-04T18:36:31.262Z,22.69
2022-08-04T18:38:22.621Z,22.59
2022-08-04T18:40:54.786Z,22.59
2022-08-04T18:46:15.275Z,22.38
2022-08-04T18:48:45.227Z,22.34
2022-08-04T18:51:23.528Z,22.32
2022-08-04T18:53:55.260Z,22.27
2022-08-04T18:56:29.927Z,22.22
2022-08-04T18:59:00.424Z,22.28
2022-08-04T19:02:12.382Z,22.20
2022-08-04T19:04:33.586Z,22.18
2022-08-04T19:07:24.387Z,22.21
2022-08-04T19:09:59.716Z,22.14
2022-08-04T19:12:29.019Z,22.02
2022-08-04T19:17:52.557Z,21.86
2022-08-04T19:20:26.365Z,21.80
2022-08-04T19:24:11.101Z,21.80
2022-08-04T19:25:58.686Z,21.69
2022-08-04T19:28:34.163Z,21.74
2022-08-04T19:31:03.688Z,21.70
2022-08-04T19:33:58.681Z,21.68
2022-08-04T19:36:27.812Z,21.63
2022-08-04T19:38:58.145Z,21.60
2022-08-04T19:41:26.892Z,21.58
2022-08-04T19:43:55.429Z,21.56
2022-08-04T19:46:25.612Z,21.52
2022-08-04T19:48:59.762Z,21.48
2022-08-04T19:51:29.563Z,21.47
2022-08-04T19:54:02.758Z,21.48
2022-08-04T19:56:40.500Z,21.47
2022-08-04T19:59:10.017Z,21.47
2022-08-04T20:01:44.826Z,21.36
2022-08-04T20:04:15.326Z,21.33
2022-08-04T20:06:44.155Z,21.25
2022-08-04T20:12:00.769Z,21.15
2022-08-04T20:14:32.727Z,21.12
2022-08-04T20:17:03.317Z,21.03
2022-08-04T20:19:40.486Z,20.95
2022-08-04T20:22:52.016Z,20.92
2022-08-04T20:25:11.106Z,20.90
2022-08-04T20:27:59.551Z,20.75
2022-08-04T20:30:30.421Z,20.67
2022-08-04T20:33:00.108Z,20.64
2022-08-04T20:35:29.877Z,20.63
2022-08-04T20:38:00.698Z,20.52
2022-08-04T20:40:29.930Z,20.50
2022-08-04T20:42:58.316Z,20.40
2022-08-04T20:45:55.775Z,20.36
2022-08-04T20:48:14.994Z,20.33
2022-08-04T20:50:47.075Z,20.20
2022-08-04T20:53:16.795Z,20.09
2022-08-04T20:55:54.610Z,20.00
2022-08-04T20:58:27.404Z,19.98
2022-08-04T21:00:57.131Z,19.97
2022-08-04T21:03:38.750Z,19.87
2022-08-04T21:06:15.790Z,19.80
2022-08-04T21:08:44.066Z,19.78
2022-08-04T21:11:32.667Z,19.66
2022-08-04T21:14:01.579Z,19.65
2022-08-04T21:16:55.813Z,19.59
2022-08-04T21:19:17.861Z,19.44
2022-08-04T21:21:53.221Z,19.33
2022-08-04T21:27:11.495Z,19.27
2022-08-04T21:29:40.665Z,19.26
2022-08-04T21:32:09.702Z,19.19
2022-08-04T21:34:39.946Z,19.17
2022-08-04T21:37:11.440Z,19.15
2022-08-04T21:39:50.081Z,19.05
2022-08-04T21:42:29.278Z,19.04
2022-08-04T21:44:58.819Z,19.03
2022-08-04T21:47:46.198Z,18.95
2022-08-04T21:50:19.959Z,18.91
2022-08-04T21:52:50.496Z,18.91
2022-08-04T21:55:19.665Z,18.90
2022-08-04T21:57:49.335Z,18.87
2022-08-04T22:00:19.638Z,18.81
2022-08-04T22:02:53.488Z,18.74
2022-08-04T22:05:22.167Z,18.72
2022-08-04T22:07:52.500Z,18.69
2022-08-04T22:10:32.222Z,18.71
2022-08-04T22:13:06.880Z,18.67
2022-08-04T22:16:05.260Z,18.60
2022-08-04T22:18:24.426Z,18.55
2022-08-04T22:20:52.647Z,18.52
2022-08-04T22:23:25.254Z,18.55
2022-08-04T22:25:56.110Z,18.49
2022-08-04T22:28:28.258Z,18.52
2022-08-04T22:30:57.277Z,18.45
2022-08-04T22:33:53.798Z,18.42
2022-08-04T22:36:15.811Z,18.42
2022-08-04T22:38:51.104Z,18.37
2022-08-04T22:41:33.672Z,18.39
2022-08-04T22:44:02.803Z,18.28
2022-08-04T22:46:31.193Z,18.28
2022-08-04T22:48:59.545Z,18.27
2022-08-04T22:51:28.422Z,18.25
2022-08-04T22:54:00.277Z,18.22
2022-08-04T22:56:38.196Z,18.19
2022-08-04T22:59:11.176Z,18.18
2022-08-04T23:02:00.341Z,18.16
2022-08-04T23:04:28.442Z,18.13
2022-08-04T23:06:56.590Z,18.11
2022-08-04T23:09:26.947Z,18.05
2022-08-04T23:12:24.258Z,18.04
2022-08-04T23:14:55.290Z,18.03
2022-08-04T23:17:23.860Z,18.02
2022-08-04T23:19:58.063Z,17.96
2022-08-04T23:22:41.211Z,17.92
2022-08-04T23:25:16.561Z,17.87
2022-08-04T23:27:50.694Z,17.81
2022-08-04T23:30:21.809Z,17.70
2022-08-04T23:32:53.284Z,17.76
2022-08-04T23:35:22.006Z,17.69
2022-08-04T23:37:56.602Z,17.76
2022-08-04T23:40:32.410Z,17.69
2022-08-04T23:43:02.292Z,17.66
2022-08-04T23:46:04.502Z,17.66
2022-08-04T23:48:34.566Z,17.60
2022-08-04T23:51:10.322Z,17.59
2022-08-04T23:54:02.299Z,17.55
2022-08-04T23:56:34.125Z,17.54
2022-08-04T23:59:03.677Z,17.47
